Time,TemperatureF,DewpointF,PressureIn,WindDirection,WindDirectionDegrees,WindSpeedMPH,WindSpeedGustMPH,Humidity,HourlyPrecipIn,Conditions,Clouds,dailyrainin,SoftwareType,DateUTC
2013-07-16 00:01:00,68.0,38.0,29.87,NW,319,7.0,12.0,33,0.00,,,0.00,,2013-07-16 07:01:00,
2013-07-16 00:11:00,68.0,38.0,29.87,NW,319,7.0,12.0,33,0.00,,,0.00,,2013-07-16 07:11:00,
2013-07-16 00:32:00,67.0,38.0,29.87,NW,315,6.0,9.0,34,0.00,,,0.00,,2013-07-16 07:32:00,
2013-07-16 00:43:00,67.0,38.0,29.87,WNW,303,6.0,9.0,34,0.00,,,0.00,,2013-07-16 07:43:00,
2013-07-16 00:52:00,67.0,38.0,29.87,WNW,300,6.0,9.0,35,0.00,,,0.00,,2013-07-16 07:52:00,
2013-07-16 01:01:00,66.0,38.0,29.87,WNW,293,6.0,10.0,35,0.00,,,0.00,,2013-07-16 08:01:00,
2013-07-16 01:11:00,66.0,38.0,29.87,WNW,294,6.0,10.0,35,0.00,,,0.00,,2013-07-16 08:11:00,
2013-07-16 01:32:00,66.0,38.0,29.87,WNW,292,6.0,9.0,36,0.00,,,0.00,,2013-07-16 08:32:00,
2013-07-16 01:43:00,66.0,38.0,29.87,WNW,297,8.0,12.0,36,0.00,,,0.00,,2013-07-16 08:43:00,
2013-07-16 01:52:00,66.0,38.0,29.87,WNW,302,8.0,12.0,36,0.00,,,0.00,,2013-07-16 08:52:00,
2013-07-16 02:01:00,66.0,38.0,29.87,WNW,303,8.0,12.0,36,0.00,,,0.00,,2013-07-16 09:01:00,
2013-07-16 02:12:00,66.0,38.0,29.87,WNW,301,7.0,10.0,36,0.00,,,0.00,,2013-07-16 09:12:00,
2013-07-16 02:22:00,66.0,38.0,29.87,WNW,289,6.0,10.0,36,0.00,,,0.00,,2013-07-16 09:22:00,
2013-07-16 02:32:00,66.0,38.0,29.87,WNW,293,7.0,12.0,36,0.00,,,0.00,,2013-07-16 09:32:00,
2013-07-16 02:42:00,66.0,38.0,29.86,WNW,292,5.0,10.0,35,0.00,,,0.00,,2013-07-16 09:42:00,
2013-07-16 02:52:00,66.0,38.0,29.86,WNW,284,7.0,12.0,35,0.00,,,0.00,,2013-07-16 09:52:00,
2013-07-16 03:01:00,66.0,38.0,29.86,WNW,296,7.0,13.0,35,0.00,,,0.00,,2013-07-16 10:01:00,
2013-07-16 03:11:00,66.0,37.0,29.86,WNW,295,6.0,12.0,34,0.00,,,0.00,,2013-07-16 10:11:00,
2013-07-16 03:31:00,65.0,36.0,29.86,WNW,294,6.0,12.0,34,0.00,,,0.00,,2013-07-16 10:31:00,
2013-07-16 03:42:00,65.0,36.0,29.85,NW,310,7.0,12.0,34,0.00,,,0.00,,2013-07-16 10:42:00,
2013-07-16 03:52:00,65.0,36.0,29.85,WNW,301,6.0,12.0,34,0.00,,,0.00,,2013-07-16 10:52:00,
2013-07-16 04:01:00,65.0,36.0,29.85,NW,306,7.0,12.0,34,0.00,,,0.00,,2013-07-16 11:01:00,
2013-07-16 04:11:00,65.0,36.0,29.86,NW,305,6.0,10.0,34,0.00,,,0.00,,2013-07-16 11:11:00,
2013-07-16 04:22:00,64.0,35.0,29.86,WNW,295,5.0,9.0,34,0.00,,,0.00,,2013-07-16 11:22:00,
2013-07-16 04:32:00,64.0,35.0,29.85,WNW,292,5.0,9.0,34,0.00,,,0.00,,2013-07-16 11:32:00,
2013-07-16 04:42:00,64.0,35.0,29.86,NW,307,5.0,10.0,34,0.00,,,0.00,,2013-07-16 11:42:00,
2013-07-16 04:52:00,64.0,36.0,29.86,NW,306,6.0,9.0,35,0.00,,,0.00,,2013-07-16 11:52:00,
2013-07-16 05:01:00,63.0,36.0,29.86,WNW,293,6.0,8.0,36,0.00,,,0.00,,2013-07-16 12:01:00,
2013-07-16 05:11:00,63.0,36.0,29.86,NW,306,5.0,10.0,36,0.00,,,0.00,,2013-07-16 12:11:00,
2013-07-16 05:22:00,63.0,36.0,29.85,NW,304,6.0,12.0,37,0.00,,,0.00,,2013-07-16 12:22:00,
2013-07-16 05:32:00,63.0,36.0,29.85,NW,307,6.0,9.0,36,0.00,,,0.00,,2013-07-16 12:32:00,
2013-07-16 05:43:00,63.0,36.0,29.84,WNW,302,6.0,12.0,37,0.00,,,0.00,,2013-07-16 12:43:00,
2013-07-16 05:53:00,63.0,36.0,29.85,NW,316,5.0,10.0,37,0.00,,,0.00,,2013-07-16 12:53:00,
2013-07-16 06:01:00,63.0,36.0,29.85,WNW,302,6.0,10.0,36,0.00,,,0.00,,2013-07-16 13:01:00,
2013-07-16 06:32:00,63.0,36.0,29.85,WNW,303,9.0,12.0,36,0.00,,,0.00,,2013-07-16 13:32:00,
2013-07-16 06:42:00,63.0,36.0,29.85,WNW,298,7.0,12.0,37,0.00,,,0.00,,2013-07-16 13:42:00,
2013-07-16 07:01:00,63.0,36.0,29.85,WNW,295,7.0,12.0,36,0.00,,,0.00,,2013-07-16 14:01:00,
2013-07-16 07:11:00,64.0,37.0,29.86,WNW,303,6.0,10.0,36,0.00,,,0.00,,2013-07-16 14:11:00,
2013-07-16 08:01:00,67.0,39.0,29.85,NNW,332,8.0,14.0,36,0.00,,,0.00,,2013-07-16 15:01:00,
2013-07-16 08:11:00,67.0,38.0,29.86,NNW,328,11.0,16.0,35,0.00,,,0.00,,2013-07-16 15:11:00,
2013-07-16 09:11:00,71.0,40.0,29.88,North,357,10.0,13.0,33,0.00,,,0.00,,2013-07-16 16:11:00,
2013-07-16 09:32:00,71.0,40.0,29.86,NNW,341,10.0,15.0,32,0.00,,,0.00,,2013-07-16 16:32:00,
2013-07-16 09:43:00,72.0,41.0,29.87,North,0,9.0,16.0,32,0.00,,,0.00,,2013-07-16 16:43:00,
2013-07-16 10:02:00,74.0,41.0,29.86,NNW,346,9.0,17.0,30,0.00,,,0.00,,2013-07-16 17:02:00,
2013-07-16 10:11:00,74.0,41.0,29.86,NNW,340,10.0,14.0,30,0.00,,,0.00,,2013-07-16 17:11:00,
2013-07-16 10:32:00,75.0,42.0,29.85,North,4,10.0,17.0,31,0.00,,,0.00,,2013-07-16 17:32:00,
2013-07-16 10:43:00,76.0,41.0,29.86,NNW,345,10.0,14.0,29,0.00,,,0.00,,2013-07-16 17:43:00,
2013-07-16 10:52:00,76.0,42.0,29.85,NNW,329,9.0,13.0,30,0.00,,,0.00,,2013-07-16 17:52:00,
2013-07-16 11:01:00,77.0,42.0,29.85,NNW,341,9.0,15.0,29,0.00,,,0.00,,2013-07-16 18:01:00,
2013-07-16 11:11:00,77.0,42.0,29.84,NNW,330,9.0,16.0,29,0.00,,,0.00,,2013-07-16 18:11:00,
2013-07-16 11:43:00,76.0,41.0,29.84,NNE,14,5.0,12.0,29,0.00,,,0.00,,2013-07-16 18:43:00,
2013-07-16 11:52:00,76.0,42.0,29.85,NNE,27,7.0,12.0,30,0.00,,,0.00,,2013-07-16 18:52:00,
2013-07-16 12:01:00,74.0,42.0,29.83,NNW,328,9.0,12.0,32,0.00,,,0.00,,2013-07-16 19:01:00,
2013-07-16 12:11:00,73.0,41.0,29.84,NNE,13,6.0,10.0,31,0.00,,,0.00,,2013-07-16 19:11:00,
2013-07-16 12:32:00,76.0,43.0,29.83,North,8,9.0,13.0,31,0.00,,,0.00,,2013-07-16 19:32:00,
2013-07-16 12:43:00,78.0,43.0,29.83,North,1,9.0,16.0,29,0.00,,,0.00,,2013-07-16 19:43:00,
2013-07-16 12:52:00,76.0,41.0,29.82,North,355,9.0,16.0,29,0.00,,,0.00,,2013-07-16 19:52:00,
2013-07-16 13:03:00,77.0,43.0,29.83,NNW,346,9.0,13.0,30,0.00,,,0.00,,2013-07-16 20:03:00,
2013-07-16 13:43:00,78.0,42.0,29.84,NW,317,2.0,9.0,28,0.00,,,0.00,,2013-07-16 20:43:00,
2013-07-16 13:52:00,79.0,44.0,29.83,North,355,3.0,8.0,29,0.00,,,0.00,,2013-07-16 20:52:00,
2013-07-16 14:11:00,80.0,42.0,29.83,NNE,14,5.0,12.0,26,0.00,,,0.00,,2013-07-16 21:11:00,
2013-07-16 14:52:00,81.0,44.0,29.82,NW,314,3.0,12.0,27,0.00,,,0.00,,2013-07-16 21:52:00,
2013-07-16 15:32:00,84.0,43.0,29.82,North,349,6.0,8.0,24,0.00,,,0.00,,2013-07-16 22:32:00,
2013-07-16 15:43:00,83.0,40.0,29.82,North,351,3.0,10.0,22,0.00,,,0.00,,2013-07-16 22:43:00,
2013-07-16 16:01:00,84.0,42.0,29.81,North,352,7.0,10.0,23,0.00,,,0.00,,2013-07-16 23:01:00,
2013-07-16 16:11:00,84.0,42.0,29.81,North,350,3.0,13.0,23,0.00,,,0.00,,2013-07-16 23:11:00,
2013-07-16 16:32:00,85.0,42.0,29.81,NW,321,7.0,13.0,22,0.00,,,0.00,,2013-07-16 23:32:00,
2013-07-16 16:52:00,86.0,40.0,29.80,NW,315,8.0,13.0,20,0.00,,,0.00,,2013-07-16 23:52:00,
2013-07-16 17:01:00,86.0,43.0,29.80,North,5,6.0,10.0,22,0.00,,,0.00,,2013-07-17 00:01:00,
2013-07-16 17:33:00,86.0,43.0,29.79,NNW,329,8.0,10.0,22,0.00,,,0.00,,2013-07-17 00:33:00,
2013-07-16 17:52:00,86.0,43.0,29.79,NW,323,6.0,13.0,22,0.00,,,0.00,,2013-07-17 00:52:00,
2013-07-16 18:01:00,86.0,44.0,29.79,NNW,341,8.0,14.0,23,0.00,,,0.00,,2013-07-17 01:01:00,
2013-07-16 18:11:00,85.0,42.0,29.79,NW,311,7.0,12.0,22,0.00,,,0.00,,2013-07-17 01:11:00,
2013-07-16 18:32:00,85.0,43.0,29.79,NNW,347,7.0,12.0,23,0.00,,,0.00,,2013-07-17 01:32:00,
2013-07-16 18:52:00,84.0,42.0,29.79,NNW,346,7.0,15.0,23,0.00,,,0.00,,2013-07-17 01:52:00,
2013-07-16 19:11:00,83.0,41.0,29.80,North,353,6.0,10.0,23,0.00,,,0.00,,2013-07-17 02:11:00,
2013-07-16 19:32:00,82.0,42.0,29.80,NNW,348,6.0,10.0,24,0.00,,,0.00,,2013-07-17 02:32:00,
2013-07-16 20:01:00,80.0,43.0,29.81,NNW,344,6.0,10.0,27,0.00,,,0.00,,2013-07-17 03:01:00,
2013-07-16 20:43:00,79.0,51.0,29.82,NW,306,9.0,18.0,38,0.00,,,0.00,,2013-07-17 03:43:00,
2013-07-16 20:52:00,79.0,51.0,29.82,NW,306,9.0,18.0,38,0.00,,,0.00,,2013-07-17 03:52:00,
2013-07-16 21:01:00,79.0,51.0,29.82,NW,306,9.0,18.0,38,0.00,,,0.00,,2013-07-17 04:01:00,
2013-07-16 21:11:00,79.0,51.0,29.82,NW,306,9.0,18.0,38,0.00,,,0.00,,2013-07-17 04:11:00,
2013-07-16 21:43:00,73.0,49.0,29.86,West,269,7.0,12.0,42,0.00,,,0.00,,2013-07-17 04:43:00,
2013-07-16 21:53:00,73.0,49.0,29.87,WNW,289,9.0,17.0,42,0.00,,,0.00,,2013-07-17 04:53:00,
2013-07-16 22:01:00,72.0,48.0,29.88,WNW,288,9.0,14.0,42,0.00,,,0.00,,2013-07-17 05:01:00,
2013-07-16 22:32:00,71.0,47.0,29.88,West,275,9.0,15.0,42,0.00,,,0.00,,2013-07-17 05:32:00,
2013-07-16 22:52:00,71.0,47.0,29.88,West,273,8.0,13.0,42,0.00,,,0.00,,2013-07-17 05:52:00,
2013-07-16 23:01:00,71.0,47.0,29.89,West,278,10.0,16.0,42,0.00,,,0.00,,2013-07-17 06:01:00,
2013-07-16 23:32:00,70.0,45.0,29.90,West,271,9.0,16.0,41,0.00,,,0.00,,2013-07-17 06:32:00,